createdAt,value
2016-08-17T00:07:51.018Z,1
2016-08-17T00:13:51.098Z,1
2016-08-17T00:19:52.849Z,0
2016-08-17T00:31:51.019Z,0
2016-08-17T00:37:54.132Z,0
2016-08-17T00:43:53.733Z,0
2016-08-17T00:49:53.722Z,0
2016-08-17T00:58:52.039Z,0
2016-08-17T01:04:54.332Z,0
2016-08-17T01:15:52.632Z,0
2016-08-17T01:21:54.555Z,0
2016-08-17T01:27:54.577Z,0
2016-08-17T01:33:54.831Z,0
2016-08-17T01:39:55.237Z,0
2016-08-17T01:45:54.851Z,0
2016-08-17T01:53:53.683Z,0
2016-08-17T01:59:53.856Z,0
2016-08-17T02:05:55.558Z,0
2016-08-17T02:11:57.572Z,0
2016-08-17T02:21:55.474Z,0
2016-08-17T02:27:57.462Z,0
2016-08-17T02:33:55.387Z,0
2016-08-17T02:39:57.634Z,0
2016-08-17T02:51:58.496Z,0
2016-08-17T02:58:00.222Z,0
2016-08-17T03:07:57.455Z,0
2016-08-17T03:13:59.381Z,0
2016-08-17T03:19:59.753Z,0
2016-08-17T03:25:59.659Z,0
2016-08-17T03:32:01.120Z,0
2016-08-17T03:38:00.837Z,0
2016-08-17T03:44:00.263Z,0
2016-08-17T03:49:21.141Z,0
2016-08-17T03:55:19.064Z,0
2016-08-17T04:01:19.787Z,0
2016-08-17T04:07:20.185Z,0
2016-08-17T04:13:20.562Z,0
2016-08-17T04:19:21.423Z,0
2016-08-17T04:25:22.062Z,0
2016-08-17T04:31:21.049Z,0
2016-08-17T04:37:21.619Z,0
2016-08-17T04:43:22.039Z,0
2016-08-17T04:49:22.621Z,0
2016-08-17T04:55:23.683Z,0
2016-08-17T05:01:23.998Z,0
2016-08-17T05:07:24.135Z,0
2016-08-17T05:13:24.636Z,0
2016-08-17T05:19:24.919Z,0
2016-08-17T05:25:25.504Z,0
2016-08-17T05:31:25.978Z,0
2016-08-17T05:37:26.571Z,0
2016-08-17T05:43:26.822Z,0
2016-08-17T05:49:27.324Z,0
2016-08-17T05:55:27.880Z,0
2016-08-17T06:01:28.397Z,0
2016-08-17T06:07:28.820Z,0
2016-08-17T06:13:29.559Z,0
2016-08-17T06:19:30.121Z,0
2016-08-17T06:25:30.124Z,0
2016-08-17T06:31:30.941Z,0
2016-08-17T06:37:31.329Z,0
2016-08-17T06:43:31.561Z,0
2016-08-17T06:49:31.951Z,0
2016-08-17T06:58:31.433Z,0
2016-08-17T07:04:35.012Z,0
2016-08-17T07:10:37.028Z,0
2016-08-17T07:16:38.656Z,0
2016-08-17T07:22:39.642Z,0
2016-08-17T07:28:39.659Z,0
2016-08-17T07:34:40.197Z,0
2016-08-17T07:40:40.694Z,0
2016-08-17T07:46:40.806Z,0
2016-08-17T07:52:41.510Z,0
2016-08-17T07:58:41.992Z,0
2016-08-17T08:04:42.581Z,0
2016-08-17T08:10:42.909Z,0
2016-08-17T08:16:43.358Z,0
2016-08-17T08:22:44.002Z,0
2016-08-17T08:28:44.435Z,0
2016-08-17T08:34:44.915Z,0
2016-08-17T08:40:45.036Z,0
2016-08-17T08:46:45.481Z,0
2016-08-17T08:52:46.243Z,0
2016-08-17T08:58:46.231Z,0
2016-08-17T09:04:47.010Z,0
2016-08-17T09:10:47.284Z,0
2016-08-17T09:16:47.997Z,0
2016-08-17T09:22:48.770Z,0
2016-08-17T09:28:49.075Z,0
2016-08-17T09:34:49.418Z,0
2016-08-17T09:40:50.156Z,0
2016-08-17T09:46:50.576Z,0
2016-08-17T09:52:51.296Z,0
2016-08-17T09:58:51.234Z,0
2016-08-17T10:05:44.459Z,0
2016-08-17T10:11:48.539Z,0
2016-08-17T10:17:45.442Z,0
2016-08-17T10:23:45.844Z,0
2016-08-17T10:29:46.354Z,0
2016-08-17T10:35:46.822Z,0
2016-08-17T10:41:47.495Z,0
2016-08-17T10:47:47.967Z,0
2016-08-17T10:53:48.299Z,0
2016-08-17T10:59:49.841Z,0
2016-08-17T11:05:50.268Z,0
2016-08-17T11:11:50.843Z,0
2016-08-17T11:17:51.125Z,0
2016-08-17T11:23:51.704Z,0
2016-08-17T11:29:52.101Z,0
2016-08-17T11:35:52.760Z,0
2016-08-17T11:41:52.984Z,0
2016-08-17T11:47:53.708Z,0
2016-08-17T11:53:54.000Z,0
2016-08-17T11:59:54.485Z,0
2016-08-17T12:05:54.877Z,0
2016-08-17T12:13:18.807Z,0
2016-08-17T12:19:10.962Z,0
2016-08-17T12:46:10.369Z,2
2016-08-17T12:52:13.871Z,2
2016-08-17T12:58:11.991Z,3
2016-08-17T13:06:08.006Z,3
2016-08-17T13:12:12.833Z,4
2016-08-17T13:18:15.112Z,5
2016-08-17T13:24:13.712Z,5
2016-08-17T13:30:14.655Z,5
2016-08-17T13:36:14.825Z,6
2016-08-17T13:42:14.846Z,6
2016-08-17T13:48:15.887Z,6
2016-08-17T13:54:15.529Z,6
2016-08-17T14:00:16.550Z,6
2016-08-17T14:12:14.560Z,6
2016-08-17T14:18:18.008Z,7
2016-08-17T14:24:18.728Z,7
2016-08-17T14:30:18.873Z,7
2016-08-17T14:36:22.862Z,7
2016-08-17T14:42:21.066Z,7
2016-08-17T14:48:22.887Z,7
2016-08-17T14:54:20.485Z,7
2016-08-17T15:00:20.629Z,7
2016-08-17T15:06:21.490Z,7
2016-08-17T15:12:21.654Z,7
2016-08-17T15:18:25.705Z,7
2016-08-17T15:24:24.351Z,7
2016-08-17T15:30:23.773Z,7
2016-08-17T15:36:23.745Z,7
2016-08-17T15:47:27.783Z,7
2016-08-17T15:53:28.278Z,7
2016-08-17T15:59:28.982Z,7
2016-08-17T16:05:24.434Z,7
2016-08-17T16:11:27.578Z,7
2016-08-17T16:17:28.100Z,8
2016-08-17T16:23:28.631Z,8
2016-08-17T16:29:25.857Z,8
2016-08-17T16:35:29.618Z,7
2016-08-17T16:41:30.034Z,7
2016-08-17T16:47:30.475Z,7
2016-08-17T16:53:30.613Z,7
2016-08-17T16:59:28.051Z,7
2016-08-17T17:05:31.358Z,7
2016-08-17T17:11:32.197Z,7
2016-08-17T17:17:32.933Z,7
2016-08-17T17:23:32.795Z,7
2016-08-17T17:29:30.178Z,7
2016-08-17T17:35:31.662Z,7
2016-08-17T17:41:31.776Z,7
2016-08-17T17:47:30.448Z,7
2016-08-17T17:53:34.998Z,7
2016-08-17T17:59:31.818Z,7
2016-08-17T18:05:32.078Z,7
2016-08-17T18:11:37.545Z,7
2016-08-17T18:17:33.176Z,7
2016-08-17T18:23:36.978Z,8
2016-08-17T18:29:34.276Z,8
2016-08-17T18:35:33.679Z,8
2016-08-17T18:41:37.143Z,7
2016-08-17T18:47:40.755Z,6
2016-08-17T18:53:35.340Z,6
2016-08-17T19:02:53.122Z,5
2016-08-17T19:08:54.624Z,5
2016-08-17T19:14:53.216Z,4
2016-08-17T19:23:35.116Z,4
2016-08-17T19:29:37.247Z,3
2016-08-17T19:35:38.338Z,3
2016-08-17T19:41:39.169Z,3
2016-08-17T19:47:43.036Z,2
2016-08-17T19:53:42.239Z,2
2016-08-17T19:59:40.979Z,2
2016-08-17T20:09:18.557Z,2
2016-08-17T20:16:40.142Z,2
2016-08-17T20:22:40.299Z,1
2016-08-17T20:33:38.754Z,1
2016-08-17T20:39:41.865Z,1
2016-08-17T20:48:41.037Z,1
2016-08-17T20:54:43.001Z,1
2016-08-17T21:00:40.676Z,1
2016-08-17T21:19:41.956Z,1
2016-08-17T21:25:43.134Z,1
2016-08-17T21:35:24.913Z,1
2016-08-17T21:43:22.301Z,1
2016-08-17T21:49:23.756Z,1
2016-08-17T22:03:48.486Z,1
2016-08-17T22:15:27.696Z,1
2016-08-17T22:26:45.692Z,0
2016-08-17T22:39:49.346Z,0
2016-08-17T22:45:48.686Z,0
2016-08-17T22:51:48.346Z,0
2016-08-17T23:01:51.038Z,0
2016-08-17T23:07:55.184Z,0
2016-08-17T23:13:49.511Z,0
2016-08-17T23:19:50.950Z,0
2016-08-17T23:25:50.744Z,0
2016-08-17T23:31:50.525Z,0
2016-08-17T23:43:30.428Z,0
2016-08-17T23:56:27.590Z,0
